ELIMINATOR 2019 - ETAP I

Wydarzenie:
Organizator:
Fundacja Bieg Rzeźnika
Data:
2019-06-08
Miejsce:
Ustroń
Dystans:
1.7 km
Zgłoszonych:
204
Wystartowało:
176
Nie ukończyło:
0
Ukończyło:
176
Na trasie:
0

Klasyfikacja: Wszyscy

Wyniki nieoficjalne !!!
Wyniki uproszczone: PDF | PDF2 | CSV
Klasyfikacje w punktach pomiarowych: 0.9km | Meta
Klasyfikacje wg kategorii: Wszyscy | K Open | M Open | 1KFala | 1MFala | K20 | M20 | K30 | M30 | K40 | M40 | K50 | M50 | K60 | M60

MscZawodnikNumerKlubMiejscowośćKrajKategoriaMkatK/M0.9kmCzas
netto
1.7km
Czas
brutto
1.7km
Różn.Tempo
min/km
Tempo
km/h
       
1LEPIARZ Sylwester 2002LKB RUDNIKWRONÓWM201M 100:06:3100:15:30.0000:15:30.00 9:076.6
2JAŚTAL Piotr 2126LKB RUDNIK/AZS UJK KIELCEDOMASZOWICEM202M 200:06:4800:15:41.4500:15:41.45+00:00:119:136.5
3SKUPIEŃ Tomasz 2003MUAY RUNNING TEAMSKAWINKIM301M 300:06:5800:15:53.1000:15:53.10+00:00:239:206.4
4JAWORSKI Zbigniew 2146...KLUSZKOWCEM401M 400:07:1500:16:24.0500:16:24.05+00:00:549:386.2
5BIERNAWSKI Piotr 2004ATTIQ TEAM/SALMINGNOWY TARGM402M 500:07:2400:16:42.8500:16:42.85+00:01:129:496.1
6BEDNARZ Adam 2016KS ŻEGLINA SIERADZZŁOCZEWM203M 600:07:2700:17:04.9500:17:04.95+00:01:3410:026
7MISIAK Bartosz 2147ALPIN SPORT HOKA ONE ONE TEAMCESKY TESINM302M 700:07:3000:17:12.5000:17:12.50+00:01:4210:075.9
8BROJ Marcel 2142BROJ TEAM ŹLINICEŹLINICEM204M 800:07:4000:17:17.5500:17:17.55+00:01:4710:105.9
9DYCZEK Mariusz 2022DYCZUŚ TEAMZDZIESZOWICEM403M 900:07:3400:17:24.1000:17:24.10+00:01:5410:145.9
10GAWLAS Dominik 2007UZDROWISKOWY TEAMCIESZYNM303M 1000:07:5900:17:31.5500:17:31.55+00:02:0110:185.8
11ZAKOWICZ Paweł 2144PIECHOTĄ PO SCHODACH - ŁÓDŹHALINÓWM304M 1100:07:2200:17:39.5500:17:39.55+00:02:0910:225.8
12KAPAON Łazarz 2020CAZZO CLUB RUNNING TEAM/RUNTATA.PLWARSZAWAM205M 1200:07:2800:17:42.4500:17:42.45+00:02:1210:245.8
13OŚLIZŁO Tomasz 2090HUSARIA RACE TEAMGORZYCEM305M 1300:08:1400:18:05.4000:18:05.40+00:02:3510:385.6
14URBAŃCZYK Karol 2044GLIWICEM206M 1400:07:5900:18:32.1000:18:32.10+00:03:0210:545.5
15MAGIERA Janusz 2005FORMA WODZISŁAW ŚLĄSKIWODZISŁAW ŚLĄSKIM501M 1500:08:2100:18:42.2500:18:42.25+00:03:1211:005.5
16TARGOSZ Michał Mateusz 2123FISI COMPRESSPORT NB TEAMKRAKÓWM306M 1600:08:2800:18:58.6500:18:58.65+00:03:2811:095.4
17HUZIOR Piotr 2162PTTIQNOWY TARGM404M 1700:08:3400:19:08.3500:19:08.35+00:03:3811:155.3
18JAKIEŁA Michał 2143KRAKÓWM307M 1800:08:2900:19:15.5500:19:15.55+00:03:4511:195.3
19FLISIŃSKI Łukasz 2071SOSNOWIECM308M 1900:08:1900:19:20.5500:19:20.55+00:03:5011:225.3
20TOKAREWICZ Damian 2041ZEBRYZEBRZYDOWICEM309M 2000:08:3600:19:21.9000:19:21.90+00:03:5111:225.3
21JANUSZYK Iwona 1002KS KANDAHAR/ATTIQ TEAMOŚWIĘCIMK201K 100:08:4600:19:24.0500:19:24.05+00:03:5411:245.3
22KURYŁO Jakub 2092AUGUSTÓWM207M 2100:08:1000:19:35.2500:19:35.25+00:04:0511:315.2
23ZATORSKA Izabela 1007ALPIN SPORT HOKA ONE ONETEAMWROCANKAK501K 200:09:0000:19:42.3000:19:42.30+00:04:1211:355.2
24JARCZOK Zdzichu 2019VIKING TRAINING CENTERŁAKAM3010M 2200:08:3300:19:45.9500:19:45.95+00:04:1511:375.2
25SOKOŁOWSKI Marek 2006ALPIN SPORT HOKA ONE ONE TEAMMYSŁOWICE-WESOŁAM502M 2300:08:4900:19:49.7500:19:49.75+00:04:1911:395.1
26FIJAK Jan 2054SIENNAM405M 2400:08:5600:19:53.1000:19:53.10+00:04:2311:415.1
27FABIAN Marcel 2135SOCIOS SILESIAPYSKOWICEM208M 2500:08:1400:20:02.1500:20:02.15+00:04:3211:475.1
28SKALSKA Anna 1003CARBON OCR RACING TEAM FESTIWAL BIEGOWY KRYNICA ZDRÓJBYTOMK301K 300:09:0100:20:04.9500:20:04.95+00:04:3411:485.1
29CHYBIORZ Marek 2046CIESZYNM3011M 2600:08:4200:20:07.6500:20:07.65+00:04:3711:505.1
30CZOK Maria 1004ALPIN SPORT HOKA ONE ONE TEAM/ UBSSTRZELCE OPOLSKIEK302K 400:08:5900:20:09.9500:20:09.95+00:04:3911:515.1
31SZAFRANEK Paweł 2069BIEGIEM PRZEZ CHYBIEUSTROŃM209M 2700:09:2100:20:10.4000:20:10.40+00:04:4011:515.1
32OSETEK Paweł 2163RADLINIOKI W BIEGUPSZÓWM3012M 2800:08:5900:20:10.5500:20:10.55+00:04:4011:515.1
33DENICKI Przemysław 2113KOLEJ LINOWA CZANTORIAKNURÓWM2010M 2900:08:5700:20:20.6500:20:20.65+00:04:5011:575
34WIECZOREK Damian 2131UZDROWISKOKATOWICEM406M 3000:08:5400:20:31.2500:20:31.25+00:05:0112:045
35WASZTYL Tomasz 2085BIELSKO - BIAŁAM503M 3100:08:5600:20:32.4000:20:32.40+00:05:0212:045
36SNARSKI Dariusz 2060WATAHA-ŁĄCZY NAS BIEGANIEKATOWICEM407M 3200:09:0000:20:34.3500:20:34.35+00:05:0412:055
37BADURA Adam 2153FORMA WODZISŁAW ŚLĄSKIRYBNIKM408M 3300:09:2700:20:44.1000:20:44.10+00:05:1412:114.9
38CUDZIŁO Łukasz 2086X-MAN TEAMKIELCEM3013M 3400:08:4700:20:49.5500:20:49.55+00:05:1912:144.9
39ŁUKOSZ Tomasz 2109XXXUSTROŃM3014M 3500:09:2400:20:50.1500:20:50.15+00:05:2012:154.9
40KROTLA Piotr 2121TRIATHLON TRAINING CENTERCZĘSTOCHOWAM3015M 3600:09:1200:20:53.4000:20:53.40+00:05:2312:174.9
41SZKODA Dariusz 2164SOCIOS SILESIARUDA ŚLĄSKAM3016M 3700:09:1000:20:53.9500:20:53.95+00:05:2312:174.9
42MALINOWSKI Mateusz 2012MYSŁOWICEM3017M 3800:08:5500:20:56.2500:20:56.25+00:05:2612:184.9
43PILSNIAK Krzysztof 2083LIBERTÓWM409M 3900:09:1300:21:00.1000:21:00.10+00:05:3012:214.9
44SZEWCZYK Damian 2080JEJKOWICEM4010M 4000:09:2300:21:01.4500:21:01.45+00:05:3112:214.9
45SKÓRA Marcin 2160M3018M 4100:09:1600:21:26.3500:21:26.35+00:05:5612:364.8
46OPOLONY Ireneusz 2165SOCIOS SILESIAŁAŃCEM3019M 4200:09:1900:21:30.5500:21:30.55+00:06:0012:384.7
47GRUSZKA Grzegorz 2049ENDURANCE TEAMSIEMIANOWICE ŚLĄSKIEM4011M 4300:09:4500:21:34.5000:21:34.50+00:06:0412:414.7
48GAMZA Mariusz 2079PĘDZĄCE ŻÓŁWIE IMICZERWIONKA LESZCZYNYM3020M 4400:09:2300:21:35.7500:21:35.75+00:06:0512:414.7
49MARTYNEK Jakub 2102SKI MOSTYMOSTY U JABLUNKOVAM2011M 4500:08:4500:21:38.0500:21:38.05+00:06:0812:434.7
50KUBACZKA Grzegorz 2091WWW.AG-ARCHITEKCI.PLSKOCZÓWM3021M 4600:09:3000:21:49.3500:21:49.35+00:06:1912:504.7
51JAKUBCZYK Dariusz 2094CKBABCIE/WOŹNIAKRUNNINGTEAMPIEKOSZÓWM4012M 4700:09:5200:21:50.5000:21:50.50+00:06:2012:504.7
52ZABEL Robert 2148ZABEL.PLPOZNAŃM4013M 4800:09:2600:21:54.2000:21:54.20+00:06:2412:524.7
53WÓJCICKI Kamil 2132RAJSPORT ACTIVE OPOLELISIĘCICEM2012M 4900:09:2200:21:55.4500:21:55.45+00:06:2512:534.7
54KOZIOŁ Kamil 2136G.O.A.T. TEAM / MŁYN TRAIL MICHAŁOWICEMICHAŁOWICEM2013M 5000:10:1100:21:57.1000:21:57.10+00:06:2712:544.6
55WOJNO Arkadiusz 2018DROGA DO ULTRAŁÓDŹM3022M 5100:09:5600:22:00.3000:22:00.30+00:06:3012:564.6
56BUCZYŃSKI Adam 2024NON STOP TRAILKRAKÓWM4014M 5200:09:5700:22:01.9000:22:01.90+00:06:3112:574.6
57GRUND Marek 2011MAFIA TEAM LUBLINIECSTRZEBIŃM3023M 5300:09:5200:22:03.2000:22:03.20+00:06:3312:584.6
58BRÓG Wojciech 2009OLKUSZM4015M 5400:09:5400:22:04.3500:22:04.35+00:06:3412:584.6
59MIZERA Krzysztof 2117KRAKÓWM3024M 5500:09:4200:22:05.2500:22:05.25+00:06:3512:594.6
60NAGIEL Andrzej 2053ZABIEGANI CZĘSTOCHOWACZĘSTOCHOWAM4016M 5600:09:4000:22:06.9000:22:06.90+00:06:3613:004.6
61SOBOLA Grzegorz 2051RACIBÓRZM2014M 5700:09:4100:22:08.4500:22:08.45+00:06:3813:014.6
62GREGORCZYK Marcin 2075STS BIEGATON MIKOŁÓWMIKOŁÓWM4017M 5800:09:3800:22:10.4000:22:10.40+00:06:4013:024.6
63DOLNY Tomasz 2154M4018M 5900:09:4900:22:11.8500:22:11.85+00:06:4113:024.6
64TOPOROWICZ Agata 1024BIELSKO-BIAŁAK401K 500:09:5900:22:12.4000:22:12.40+00:06:4213:034.6
65URBAN Mirosław 2021ITMBW KRAKÓWKRAKÓWM3025M 6000:10:1100:22:13.9500:22:13.95+00:06:4313:044.6
66BUKOWSKI Marek 2081BYTOMM4019M 6100:09:5300:22:15.3500:22:15.35+00:06:4513:054.6
67HECZKO Adam 2128UZDROWISKOWY TEAMPOGWIZDÓWM3026M 6200:10:0500:22:17.7500:22:17.75+00:06:4713:064.6
68OCHMAN Paweł 2111FUTURE PROCESSING RUNNING TEAMGLIWICEM3027M 6300:10:0700:22:22.2000:22:22.20+00:06:5213:094.6
69DANIKIEWICZ Michał 2114ROZBIEGAMY TO MIASTO - CZECHOWICE-DZIEDZICECZECHOWICE-DZIEDZICEM3028M 6400:09:3700:22:26.5500:22:26.55+00:06:5613:114.5
70MROWIEC Kacper 2098ŻYWIECM2015M 6500:10:0800:22:31.1000:22:31.10+00:07:0113:144.5
71GARCORZ Dawid 2014MAFIA TEAM LUBLINIECDZIELNAM2016M 6600:10:1000:22:31.9500:22:31.95+00:07:0113:144.5
72URBAN Wiktor 2082NIGHT RUNNERS ZABRZE / ZPBZABRZEM3029M 6700:10:0300:22:32.7500:22:32.75+00:07:0213:154.5
73MIKULSKI Michał 2138GREMI BOCHNIABOCHNIAM3030M 6800:09:4700:22:37.0000:22:37.00+00:07:0713:184.5
74LANGE Beata 1005BIŁGORAJ BIEGABIŁGORAJK402K 600:10:0900:22:37.5500:22:37.55+00:07:0713:184.5
75MARTYNEK Vladislav 2101SKI MOSTYMOSTY U JABLUNKOVAM601M 6900:09:5600:22:41.3500:22:41.35+00:07:1113:204.5
76MAZUREK Roman 2084SPARTANIE DZIECIOMMURÓWM4020M 7000:10:2100:22:44.5500:22:44.55+00:07:1413:224.5
77RYBIŃSKI Łukasz 2065EŁKA TEAMRUDA ŚLĄSKAM3031M 7100:09:3900:22:46.4500:22:46.45+00:07:1613:234.5
78MAZUR Damian 2033SOCIOS SILESIARUDA ŚLĄSKAM3032M 7200:10:0400:22:48.9000:22:48.90+00:07:1813:244.5
79ŁASKI Mateusz 2013LANCKORONAM2017M 7300:10:0200:22:54.1500:22:54.15+00:07:2413:284.5
80CHACHUŁA Ryszard 2030DYCZUŚ TEAMZDZIESZOWICEM4021M 7400:10:1200:22:55.8000:22:55.80+00:07:2513:284.5
81ZAJDEL Michał 2059SOCIOS SILESIARUDA ŚLĄSKAM4022M 7500:10:0500:22:56.9000:22:56.90+00:07:2613:294.4
82GUZDEK Tomasz 2039PSP BYTOMBYTOMM3033M 7600:10:1400:22:58.7000:22:58.70+00:07:2813:304.4
83KUŚMIERSKI Michał 2038NO I?BIELSKO-BIAŁAM4023M 7700:10:3500:23:02.5500:23:02.55+00:07:3213:324.4
84KURYŁO Paweł 2058AUGUSTÓWM4024M 7800:09:5100:23:05.4000:23:05.40+00:07:3513:344.4
85CYMERLIK Krzysztof 2110ŻORYM504M 7900:10:0800:23:07.5000:23:07.50+00:07:3713:354.4
86CHAWONIOK Anna 1035K202K 700:10:3300:23:08.7000:23:08.70+00:07:3813:364.4
87GLOS Janusz 2137MIĘDZYŚWIEĆM3034M 8000:10:2500:23:10.5500:23:10.55+00:07:4013:374.4
88STEFAŃCZUK Waldemar 2130UZDROWISKO USTROŃKATOWICEM4025M 8100:09:5500:23:14.6000:23:14.60+00:07:4413:404.4
89MARKIEWICZ Karol 2096BIEGAM ŻEBY ŻREĆ WIĘCEJ CIASTKÓWBIELSKO-BIAŁAM3035M 8200:09:3400:23:16.8000:23:16.80+00:07:4613:414.4
90RYCERSKI Rafał 2156CZAPLINEKM3036M 8300:10:0100:23:17.8000:23:17.80+00:07:4713:414.4
91KORCZ Daniel 2161JAWORZNO RUNNERSJAWORZNOM4026M 8400:10:5300:23:18.5000:23:18.50+00:07:4813:424.4
92MAŁKOWSKI Bogdan 2025SPARTANIE DZIECIOMMURÓWM505M 8500:10:1900:23:19.3500:23:19.35+00:07:4913:424.4
93KUKUCZKA Dominik 2035TRAILRUN KUKUCZKAJAWORZYNKAM2018M 8600:09:3900:23:20.4500:23:20.45+00:07:5013:434.4
94KADŁUBEK Aleksander 2047TKTJ/OSP REPTY ŚLĄSKIETARNOWSKIE GÓRYM3037M 8700:10:4000:23:22.0000:23:22.00+00:07:5213:444.4
95BEDNARZ Sebastian 2037OTM.BOTMUCHÓWM4027M 8800:10:3100:23:45.9500:23:45.95+00:08:1513:584.3
96SWOBODA Tomasz 2067KURŁA KAJ TA META?!SZYMISZÓWM3038M 8900:10:0300:23:49.6000:23:49.60+00:08:1914:004.3
97KOWAL Łukasz 2139FITNESS EXPRESS RYBNIKRYBNIKM2019M 9000:10:1000:24:01.0000:24:01.00+00:08:3114:074.2
98WILK Tomasz 2029MOMNATOCAŁEŻYCIEMIKOŁÓWM4028M 9100:10:0500:24:04.1500:24:04.15+00:08:3414:094.2
99POJDA Grzegorz 2120RYBNICKA GRUPA BIEGOWA PĘDZIMY RAZEMRYBNIKM4029M 9200:10:1700:24:06.6000:24:06.60+00:08:3614:104.2
100DWORNICKI Tomasz 2104RYBNICKA GRUPA BIEGOWA PĘDZIMY RAZEMRYBNIKM4030M 9300:10:4600:24:10.2500:24:10.25+00:08:4014:124.2
101RAKSZAWA Krzysztof 2158RYBNIKM4031M 9400:10:4600:24:11.4500:24:11.45+00:08:4114:134.2
102ORŁOWSKI Łukasz 2106GOŁCZA TEAMGOŁCZAM4032M 9500:10:1400:24:13.6500:24:13.65+00:08:4314:144.2
103STEFANIAK Justyna 1006KB LUPUS OLEŚNICAOLEŚNICAK403K 800:11:0100:24:22.1000:24:22.10+00:08:5214:204.2
104SZNAJDER Rafał 2097G.O.A.T. TEAM MICHAŁOWICEMICHAŁOWICEM4033M 9600:10:5200:24:40.3500:24:40.35+00:09:1014:304.1
105BOLECHOWSKA Dominika 1039ALPIN SPORT HOKA ONE ONETEAMK404K 900:11:0400:24:41.9000:24:41.90+00:09:1114:314.1
106MAZUREK Piotr 2116MCKIS JAWORZNOJAWORZNOM3039M 9700:11:1300:24:51.7500:24:51.75+00:09:2114:374.1
107KURYŁO Zenon 2036SBD ENERGETYK RYBNIKRYBNIKM506M 9800:11:1400:24:57.0500:24:57.05+00:09:2714:404.1
108MALINOWSKI Adrian 2027#CZELADZBIEGABĘDZINM4034M 9900:10:3500:25:03.1000:25:03.10+00:09:3314:444.1
109POTOCZNY Mirosław 2073JAWORZNOM4035M 10000:11:2800:25:03.9000:25:03.90+00:09:3314:444.1
110RYBCZYŃSKI Jarosław 2133DZIKIE ŻYCIE RUN TEAMSIEMIANOWICE ŚLĄSKIEM4036M 10100:11:1200:25:11.9500:25:11.95+00:09:4114:484.1
111PIDANTY Łukasz 2023JASTRZĘBIE ZDRÓJM3040M 10200:10:5000:25:14.0000:25:14.00+00:09:4414:504
112GAZDA Mariusz 2074KROSNOKROSNOM4037M 10300:10:5400:25:15.5000:25:15.50+00:09:4514:514
113ROGOSZ Marcin 2045SOCIOS SILESIARUDA ŚLĄSKAM4038M 10400:11:0400:25:18.3500:25:18.35+00:09:4814:524
114SOSNOWSKA Izabela 1021CZĘSTOCHOWAK203K 1000:10:5000:25:18.5500:25:18.55+00:09:4814:524
115CABOS Dominik 2122ZAWOJAM4039M 10500:10:2800:25:22.6000:25:22.60+00:09:5214:554
116CIOĆ Robert 2145ZABRZEM4040M 10600:11:3000:25:24.5000:25:24.50+00:09:5414:564
117MATUSIAK Dawid 2040RYBNIKM3041M 10700:10:5700:25:26.3500:25:26.35+00:09:5614:574
118LORENS Magdalena 1023G.O.A.T. TEAM MICHAŁOWICEMICHAŁOWICEK204K 1100:11:1100:25:36.9000:25:36.90+00:10:0615:034
119DZIEGUĆ Piotr 2087CZECHOWICE-DZIEDZICEM3042M 10800:11:2200:25:44.7500:25:44.75+00:10:1415:084
120KONDRATIUK Ira 1019BIEGAM ŻEBY ŻREĆ WIĘCEJ CIASTKÓWBIELSKO-BIAŁAK205K 1200:11:0500:25:47.6000:25:47.60+00:10:1715:104
121BERTINO Francesco 2076CAZZO CLUB RUNNING TEAMWARSZAWAM2020M 10900:10:5700:26:06.1500:26:06.15+00:10:3615:213.9
122GOLKOWSKI Marcel 2108OSP REPTY ŚLĄSKIETARNOWSKIE GÓRYM2021M 11000:11:2400:26:07.2000:26:07.20+00:10:3715:213.9
123KRUK Krzysztof 2072STREFABYKÓW BYTOMZABRZEM4041M 11100:12:0100:26:16.8000:26:16.80+00:10:4615:273.9
124SZNAJDER Joanna 1025G.O.A.T. TEAM MICHAŁOWICEMICHAŁOWICEK303K 1300:11:4000:26:24.3500:26:24.35+00:10:5415:313.9
125WAWROCKI Jarosław 2155ZABRZEM4042M 11200:11:5200:26:31.3500:26:31.35+00:11:0115:353.8
126HELLER Szymon 2103BRENNAM3043M 11300:11:2900:26:39.3000:26:39.30+00:11:0915:403.8
127PUCHAJDA Monika 1029OŚWIĘCIMK304K 1400:11:4900:26:39.9000:26:39.90+00:11:0915:403.8
128PRYSZCZ Mirosław 2048RUDA ŚLĄSKAM4043M 11400:11:4400:26:44.8500:26:44.85+00:11:1415:433.8
129HOMBEK Maciej 2125UZDROWISKOWY TEAMUSTROŃM507M 11500:12:2200:26:45.8000:26:45.80+00:11:1515:443.8
130STOLARCZYK Daniel 2095ZABIEGANY SKARYSZEWSKARYSZEWM4044M 11600:11:3900:26:54.0500:26:54.05+00:11:2415:493.8
131OŻGA Sebastian 2149TYCHYM3044M 11700:12:0600:26:56.0000:26:56.00+00:11:2615:503.8
132CIEŚLAR Kasia 1018USTROŃK305K 1500:12:2800:27:01.0000:27:01.00+00:11:3115:533.8
133KOLANOWSKI Kacper 2107WKURW TEAMBRZESZCZEM2022M 11800:11:0700:27:06.2000:27:06.20+00:11:3615:563.8
134WOJNO Małgorzata 1020DROGA DO ULTRAŁÓDŹK306K 1600:12:0200:27:08.6500:27:08.65+00:11:3815:573.8
135LEWANDOWSKI Mateusz 2100TYCHYM3045M 11900:11:2000:27:11.4500:27:11.45+00:11:4115:593.8
136DZIUBLA Bartłomiej 2015KAMIENIECM2023M 12000:11:3000:27:15.7000:27:15.70+00:11:4516:013.7
137MATUSZCZYK Maciej 2031CZPTYCHY.PLKATOWICEM4045M 12100:12:0000:27:19.0500:27:19.05+00:11:4916:043.7
138MIKULSKA Barbara 1031GREMI BOCHNIANOWY WIŚNICZK405K 1700:12:1300:27:20.9000:27:20.90+00:11:5016:043.7
139LITWINOWICZ Karo 1030BEDZINK307K 1800:12:1000:27:23.4000:27:23.40+00:11:5316:063.7
140MALISZEWSKI Dariusz 2124JASTRZĘBIE ZDRÓJM3046M 12200:12:1700:27:23.9500:27:23.95+00:11:5316:063.7
141LEWANDOWSKI Szymon 2055PIĘKIN I BESTIETYCHYM2024M 12300:11:2700:27:34.7000:27:34.70+00:12:0416:123.7
142SCHMIDT Robert 2062ZABRZEM3047M 12400:11:5800:27:39.6500:27:39.65+00:12:0916:153.7
143SWOBODA Jarosław 2043NIGHT RUNNERS GLIWICEGLIWICEM4046M 12500:12:3100:27:41.0500:27:41.05+00:12:1116:173.7
144DŁUGOSZ Marek 2093CHORZÓWM3048M 12600:12:3300:27:47.5000:27:47.50+00:12:1716:203.7
145LISOWSKA Kamila 1016LEŚNE RUN / NIGHT RUNNERS ZABRZEZABRZEK308K 1900:12:2900:28:06.6500:28:06.65+00:12:3616:313.6
146SZAREK Rafał 2119JAWORZNOM4047M 12700:11:4700:28:10.2500:28:10.25+00:12:4016:343.6
147ZIELIŃSKA Ewelina 1034ZABRZEK206K 2000:12:0700:28:11.7500:28:11.75+00:12:4116:343.6
148DZIKI Marek 2118ROGOŹNIKM3049M 12800:12:5300:28:23.4000:28:23.40+00:12:5316:413.6
149BAC Żaneta 1037PYSKOWICEK309K 2100:12:5000:28:33.8500:28:33.85+00:13:0316:473.6
150GÓRECKA Iwona 1026SZCZERBICEK406K 2200:12:5800:28:39.6000:28:39.60+00:13:0916:513.6
151PRÓBAN Robert 2099KATOWICEM3050M 12900:12:1800:28:46.0500:28:46.05+00:13:1616:553.5
152SZYNWELSKI Michał 2057LUBIĘ BURPEES'YKATOWICEM3051M 13000:11:5500:28:53.4500:28:53.45+00:13:2316:593.5
153MĄCZKA Krystyna 1036EKSTREMALNE OTK NA RELAKSIEGLIWICEK601K 2300:13:2500:28:56.6500:28:56.65+00:13:2617:013.5
154GARBOŚ Cezary 2115ŻORYM508M 13100:12:4200:29:25.8500:29:25.85+00:13:5517:183.5
155NORAS Alina 1010PWC SDC RUNNERS TEAMIMIELINK3010K 2400:13:0100:29:45.8000:29:45.80+00:14:1517:303.4
156MĄDRZYK Daniel 2017IB TEAMSOSNOWIECM3052M 13200:12:3900:29:57.3000:29:57.30+00:14:2717:373.4
157ŻUREK Patryk 2078TWORKÓWM3053M 13300:12:2800:30:23.9000:30:23.90+00:14:5317:523.4
158KOPEĆ Martyna 1015TRUCHTACZ MYSŁOWICEMYSŁOWICEK207K 2500:13:2800:30:50.9500:30:50.95+00:15:2018:083.3
159KOPTA Jerzy 2112CWAŁUJĄCE DZIADKIKRAKÓWM602M 13400:14:3500:30:58.6500:30:58.65+00:15:2818:123.3
160GREŃ Dorota 1017USTROŃK3011K 2600:14:0700:31:16.7000:31:16.70+00:15:4618:233.3
161ŁOPUSIŃSKI Piotr 2152CAZZO CLUB RUNNING TEAMKRUKIM2025M 13500:13:0900:31:43.9500:31:43.95+00:16:1318:393.2
162SCHMIDT Izabela 1014ZABRZEK3012K 2700:13:5100:32:08.3500:32:08.35+00:16:3818:543.2
163TRYKA Sebastian 2127UZDROWISKOWY TEAMSKOCZÓWM3054M 13600:14:2400:32:45.7000:32:45.70+00:17:1519:153.1
164BALBUS Michał 2159MIECHOWICEBYTOMM603M 13700:14:3000:33:43.9500:33:43.95+00:18:1319:503
165KLIMOSZ Edyta 1038LECYMY DURŚISTEBNAK208K 2800:14:5100:34:32.2500:34:32.25+00:19:0220:183
166JAWOREK Dariusz 2157EKSTREMALNE OTK NA RELAKSIEGLIWICEM4048M 13800:14:4700:34:53.3000:34:53.30+00:19:2320:312.9
167LIK Michał 2068RYBNIKM3055M 13900:13:2500:35:35.5500:35:35.55+00:20:0520:552.9
168DULĘBA Bartosz 2140UZDROWISKO USTROŃ RUNING TEAMUSTROŃM3056M 14000:14:2700:35:54.3000:35:54.30+00:20:2421:072.8
169KUCZEK Grzegorz 2129KEIKOCZECHOWICE DZIEDZICEM4049M 14100:15:0400:37:11.2500:37:11.25+00:21:4121:522.7
170SUFIN Karolina 1009LUBIĘ BURPEES'YKATOWICEK3013K 2900:17:1200:41:35.8000:41:35.80+00:26:0524:272.5
171KLOSA Marta 1022KATOWICEK3014K 3000:17:0800:42:08.3500:42:08.35+00:26:3824:472.4
172KOZIJ-GULIŃSKA Barbara 1013KATOWICEK3015K 3100:17:0900:42:08.4500:42:08.45+00:26:3824:472.4
173FRELEK Katarzyna 1011PWC SDC RUNNERS TEAMKATOWICEK209K 3200:17:4500:44:31.6000:44:31.60+00:29:0126:112.3
174HERCKA Krzysztof 2028RYBNIKM3057M 14200:18:0900:45:19.2500:45:19.25+00:29:4926:392.3
LUŹNIAK Damian 2052SCI GÓRSCY ENTUZJAŚCIPOGWIZDÓWM3000:09:08 DNF DNF DNF--
SUDNIK Krzysztof 2077KNURÓWM3000:10:00 DNF DNF DNF--
Znaleziono 176 wynik(ów)